Time;durP1;ratioP1;P1;durP2;ratioP2;P2;SDS_P1;SDS_P2;PMS_P1;PMS_P2;Temp;Humidity;BMP_temperature;BMP_pressure;BME280_temperature;BME280_humidity;BME280_pressure;Samples;Min_cycle;Max_cycle;Signal;HPM_P1;HPM_P2
2022/03/27 00:00:42;;;;;;;20.08;11.82;;;11.00;63.30;;;;;;5028996;28;20042;-73
2022/03/27 00:03:07;;;;;;;20.13;12.43;;;10.90;63.50;;;;;;5025994;28;20116;-73
2022/03/27 00:05:33;;;;;;;18.23;11.18;;;11.20;63.10;;;;;;5026335;28;20112;-73
2022/03/27 00:07:59;;;;;;;19.98;11.63;;;11.10;62.90;;;;;;5029746;28;20037;-73
2022/03/27 00:10:25;;;;;;;22.88;12.98;;;10.90;63.50;;;;;;5030145;28;20037;-73
2022/03/27 00:12:51;;;;;;;21.10;12.90;;;11.00;63.40;;;;;;5029994;28;20033;-73
2022/03/27 00:15:17;;;;;;;16.67;11.45;;;11.00;63.60;;;;;;5028248;28;20396;-73
2022/03/27 00:17:43;;;;;;;21.20;12.10;;;11.00;63.30;;;;;;5030761;28;20113;-73
2022/03/27 00:20:09;;;;;;;23.10;14.50;;;10.90;63.60;;;;;;5031456;28;20163;-73
2022/03/27 00:22:38;;;;;;;21.77;13.15;;;11.20;63.70;;;;;;5030947;28;20041;-73
2022/03/27 00:25:05;;;;;;;23.63;12.98;;;11.10;63.60;;;;;;5031577;28;20045;-73
2022/03/27 00:27:32;;;;;;;24.95;13.18;;;10.80;63.90;;;;;;5030849;28;20033;-73
2022/03/27 00:29:58;;;;;;;21.77;13.20;;;10.80;64.00;;;;;;5031031;28;20029;-73
2022/03/27 00:32:24;;;;;;;21.75;13.85;;;10.70;63.80;;;;;;5030550;28;20553;-73
2022/03/27 00:34:50;;;;;;;22.42;12.75;;;10.60;64.30;;;;;;5031260;28;20068;-73
2022/03/27 00:37:16;;;;;;;21.52;13.13;;;10.40;64.50;;;;;;5030966;28;20057;-72
2022/03/27 00:39:42;;;;;;;22.42;13.75;;;10.30;64.80;;;;;;5030234;28;20037;-72
2022/03/27 00:42:08;;;;;;;21.67;12.68;;;10.00;65.30;;;;;;5030599;28;20049;-73
2022/03/27 00:44:35;;;;;;;24.33;13.18;;;9.80;65.80;;;;;;5029412;28;20059;-73
2022/03/27 00:47:02;;;;;;;22.77;13.13;;;9.80;65.40;;;;;;5030465;28;20554;-72
2022/03/27 00:49:28;;;;;;;24.45;13.98;;;10.00;65.40;;;;;;5030338;28;20067;-72
2022/03/27 00:51:54;;;;;;;23.42;13.95;;;10.30;66.00;;;;;;5031255;28;20049;-72
2022/03/27 00:54:20;;;;;;;28.40;13.80;;;10.20;65.50;;;;;;5030486;28;20037;-73
2022/03/27 00:56:46;;;;;;;22.20;13.27;;;10.30;65.40;;;;;;5030450;28;20100;-72
2022/03/27 00:59:12;;;;;;;25.30;12.98;;;10.40;65.00;;;;;;5030673;28;20078;-72
2022/03/27 01:01:39;;;;;;;20.58;12.68;;;10.20;65.40;;;;;;5030734;28;20491;-72
2022/03/27 01:04:07;;;;;;;20.23;12.02;;;10.00;65.20;;;;;;5030226;28;20114;-73
2022/03/27 01:06:35;;;;;;;25.35;13.15;;;10.00;65.10;;;;;;5031375;28;20478;-73
2022/03/27 01:11:48;;;;;;;25.55;14.65;;;9.90;65.50;;;;;;5030540;28;20129;-73
2022/03/27 01:14:21;;;;;;;26.77;14.32;;;10.00;65.60;;;;;;5029658;28;20510;-73
2022/03/27 01:16:57;;;;;;;21.08;12.60;;;10.00;65.30;;;;;;5030508;28;20041;-73
2022/03/27 01:19:23;;;;;;;22.85;13.00;;;10.00;65.30;;;;;;5029986;28;20033;-73
2022/03/27 01:21:48;;;;;;;21.73;11.98;;;9.80;66.00;;;;;;5030366;28;20041;-73
2022/03/27 01:24:17;;;;;;;23.25;13.45;;;9.70;66.20;;;;;;5030241;28;20036;-73
2022/03/27 01:26:43;;;;;;;28.38;15.38;;;10.00;65.70;;;;;;5030719;28;20395;-72
2022/03/27 01:29:09;;;;;;;26.40;13.63;;;10.20;65.50;;;;;;5030260;28;20458;-73
2022/03/27 01:31:35;;;;;;;23.25;14.02;;;10.10;65.40;;;;;;5030658;28;20049;-73
2022/03/27 01:34:02;;;;;;;24.13;13.77;;;10.20;65.80;;;;;;5030320;28;20391;-73
2022/03/27 01:36:36;;;;;;;22.90;13.82;;;10.10;65.40;;;;;;5030615;28;20101;-72
2022/03/27 01:39:10;;;;;;;22.85;13.88;;;10.00;65.50;;;;;;5030281;28;20057;-73
2022/03/27 01:41:37;;;;;;;25.75;14.32;;;10.10;65.50;;;;;;5030665;28;20037;-72
2022/03/27 01:44:07;;;;;;;22.88;13.27;;;10.10;65.00;;;;;;5030284;28;20059;-73
2022/03/27 01:46:35;;;;;;;25.67;12.95;;;10.00;65.30;;;;;;5029807;28;20033;-72
2022/03/27 01:49:03;;;;;;;22.83;13.45;;;10.10;65.10;;;;;;5030136;28;20095;-74
2022/03/27 01:51:29;;;;;;;22.08;12.88;;;10.00;65.30;;;;;;5030848;28;20045;-72
2022/03/27 01:53:55;;;;;;;20.55;12.98;;;9.90;65.20;;;;;;5033868;28;20029;-72
2022/03/27 01:56:21;;;;;;;22.70;13.00;;;9.90;65.80;;;;;;5032762;28;20491;-72
2022/03/27 01:58:47;;;;;;;22.58;13.68;;;10.00;65.20;;;;;;5033595;28;20108;-72
2022/03/27 02:01:12;;;;;;;19.92;12.48;;;9.90;64.90;;;;;;5033391;28;20041;-73
2022/03/27 02:03:38;;;;;;;27.10;13.68;;;9.60;65.50;;;;;;5033950;28;20049;-73
2022/03/27 02:06:05;;;;;;;21.33;13.13;;;9.60;65.70;;;;;;5033539;28;20549;-73
2022/03/27 02:08:33;;;;;;;20.30;12.82;;;9.50;65.70;;;;;;5034131;28;20344;-72
2022/03/27 02:10:59;;;;;;;22.48;12.57;;;9.50;66.10;;;;;;5033498;28;20041;-72
2022/03/27 02:13:25;;;;;;;28.73;13.05;;;9.70;65.50;;;;;;5034004;28;20037;-72
2022/03/27 02:15:52;;;;;;;19.95;12.27;;;9.80;65.10;;;;;;5033228;28;20056;-73
2022/03/27 02:18:18;;;;;;;22.45;12.10;;;9.70;65.00;;;;;;5033492;28;20029;-73
2022/03/27 02:20:44;;;;;;;22.90;12.35;;;9.70;65.30;;;;;;5032673;28;20408;-73
2022/03/27 02:23:11;;;;;;;17.88;11.25;;;9.80;65.20;;;;;;5033020;28;20044;-72
2022/03/27 02:25:37;;;;;;;22.00;11.98;;;9.50;65.30;;;;;;5033450;28;20029;-73
2022/03/27 02:28:04;;;;;;;25.05;12.15;;;9.30;66.20;;;;;;5033780;28;20037;-73
2022/03/27 02:30:30;;;;;;;23.42;13.25;;;9.10;66.30;;;;;;5032094;28;20041;-73
2022/03/27 02:32:56;;;;;;;22.85;13.88;;;9.10;66.80;;;;;;5033136;28;20034;-72
2022/03/27 02:35:22;;;;;;;18.02;12.30;;;9.50;66.10;;;;;;5033167;28;20045;-73
2022/03/27 02:37:49;;;;;;;23.38;13.63;;;10.00;65.90;;;;;;5033192;28;20030;-72
2022/03/27 02:40:15;;;;;;;25.55;12.93;;;10.10;65.80;;;;;;5033588;28;20037;-73
2022/03/27 02:42:41;;;;;;;19.92;12.15;;;9.90;65.70;;;;;;5033179;28;20124;-73
2022/03/27 02:45:07;;;;;;;24.17;13.25;;;9.40;66.20;;;;;;5032940;28;20112;-74
2022/03/27 02:47:33;;;;;;;24.10;12.50;;;9.30;67.10;;;;;;5032702;28;20480;-72
2022/03/27 02:49:59;;;;;;;25.17;12.30;;;9.20;66.90;;;;;;5032671;28;20068;-72
2022/03/27 02:52:24;;;;;;;24.08;13.15;;;9.00;67.10;;;;;;5032706;28;20037;-72
2022/03/27 02:54:51;;;;;;;24.65;13.15;;;9.00;67.50;;;;;;5033253;28;20091;-73
2022/03/27 02:57:16;;;;;;;21.98;14.05;;;9.10;67.20;;;;;;5032663;28;20060;-73
2022/03/27 02:59:43;;;;;;;22.30;13.05;;;8.90;67.00;;;;;;5032929;28;20514;-72
2022/03/27 03:02:08;;;;;;;29.38;12.27;;;8.80;67.20;;;;;;5032692;28;20107;-72
2022/03/27 03:04:35;;;;;;;22.30;13.90;;;9.10;66.60;;;;;;5025804;28;20061;-73
2022/03/27 03:07:01;;;;;;;22.63;14.30;;;9.10;67.00;;;;;;5028836;28;20142;-73
2022/03/27 03:09:27;;;;;;;22.88;12.35;;;8.80;67.50;;;;;;5027631;28;20475;-73
2022/03/27 03:11:52;;;;;;;26.38;13.80;;;8.70;67.60;;;;;;5028666;28;20064;-74
2022/03/27 03:14:18;;;;;;;20.98;11.82;;;9.00;67.20;;;;;;5027784;28;20037;-73
2022/03/27 03:16:46;;;;;;;24.33;13.90;;;9.20;66.60;;;;;;5028056;28;20037;-73
2022/03/27 03:19:12;;;;;;;23.10;13.57;;;9.30;66.90;;;;;;5027681;28;20041;-73
2022/03/27 03:21:37;;;;;;;22.05;12.25;;;9.30;66.40;;;;;;5027931;28;20094;-73
2022/03/27 03:24:03;;;;;;;21.73;12.40;;;9.30;66.60;;;;;;5030522;28;20041;-73
2022/03/27 03:26:30;;;;;;;22.50;12.98;;;9.40;66.50;;;;;;5030414;28;20025;-73
2022/03/27 03:28:55;;;;;;;21.83;12.38;;;8.90;67.10;;;;;;5030540;28;20041;-73
2022/03/27 03:31:21;;;;;;;20.38;12.35;;;8.70;67.40;;;;;;5030810;28;20112;-73
2022/03/27 03:33:46;;;;;;;21.58;12.57;;;8.60;67.90;;;;;;5030254;28;20128;-73
2022/03/27 03:36:12;;;;;;;27.25;11.77;;;8.80;67.70;;;;;;5030506;28;20429;-73
2022/03/27 03:38:38;;;;;;;21.85;13.00;;;8.70;67.70;;;;;;5031052;28;20392;-73
2022/03/27 03:41:03;;;;;;;24.38;12.60;;;8.20;68.80;;;;;;5030329;28;20041;-73
2022/03/27 03:43:30;;;;;;;21.35;13.45;;;8.80;67.60;;;;;;5030382;28;20104;-73
2022/03/27 03:45:56;;;;;;;21.77;13.30;;;8.60;67.80;;;;;;5029979;28;20044;-73
2022/03/27 03:48:21;;;;;;;20.58;12.95;;;8.40;68.30;;;;;;5030461;28;20037;-73
2022/03/27 03:50:47;;;;;;;23.85;13.50;;;8.90;68.30;;;;;;5030510;28;20049;-73
2022/03/27 03:53:12;;;;;;;23.85;13.45;;;8.90;67.50;;;;;;5030473;28;20065;-73
2022/03/27 03:55:38;;;;;;;25.45;13.23;;;8.80;67.50;;;;;;5029569;28;20120;-73
2022/03/27 03:58:04;;;;;;;19.45;12.10;;;8.60;67.60;;;;;;5030043;28;20037;-73
2022/03/27 04:00:31;;;;;;;26.30;12.65;;;8.40;68.10;;;;;;5030363;28;20052;-72
2022/03/27 04:02:57;;;;;;;23.45;12.60;;;8.20;68.60;;;;;;5028676;28;20053;-72
2022/03/27 04:05:22;;;;;;;24.80;13.40;;;8.10;69.10;;;;;;5027218;28;20037;-72
2022/03/27 04:07:48;;;;;;;21.23;12.45;;;8.20;68.70;;;;;;5026445;28;20099;-72
2022/03/27 04:10:15;;;;;;;23.23;13.07;;;8.10;69.00;;;;;;5029931;28;20091;-71
2022/03/27 04:12:41;;;;;;;21.30;11.77;;;8.00;69.20;;;;;;5029739;28;20045;-71
2022/03/27 04:15:07;;;;;;;24.60;13.75;;;8.20;69.10;;;;;;5029416;28;20457;-71
2022/03/27 04:17:33;;;;;;;25.48;13.60;;;8.20;69.20;;;;;;5029281;28;20525;-72
2022/03/27 04:19:58;;;;;;;24.20;13.88;;;8.70;68.50;;;;;;5029645;28;20060;-71
2022/03/27 04:22:24;;;;;;;20.13;12.77;;;8.90;68.10;;;;;;5029032;28;20037;-72
2022/03/27 04:24:50;;;;;;;27.02;13.80;;;8.90;68.20;;;;;;5030046;28;20088;-72
2022/03/27 04:27:15;;;;;;;20.70;13.73;;;8.90;68.00;;;;;;5029747;28;20033;-72
2022/03/27 04:29:41;;;;;;;20.98;13.27;;;8.60;68.10;;;;;;5029635;28;20037;-71
2022/03/27 04:32:07;;;;;;;24.58;13.40;;;9.10;68.20;;;;;;5029204;28;20446;-72
2022/03/27 04:34:34;;;;;;;23.65;13.82;;;9.40;67.50;;;;;;5029533;28;20053;-72
2022/03/27 04:37:02;;;;;;;30.52;13.02;;;9.10;67.40;;;;;;5029999;28;20143;-72
2022/03/27 04:39:27;;;;;;;25.20;13.70;;;9.00;67.70;;;;;;5029434;28;20037;-72
2022/03/27 04:41:53;;;;;;;23.90;13.32;;;8.60;68.40;;;;;;5029843;28;20040;-72
2022/03/27 04:44:18;;;;;;;25.48;13.30;;;8.70;68.40;;;;;;5028877;28;20072;-72
2022/03/27 04:46:44;;;;;;;23.23;13.60;;;8.70;68.00;;;;;;5029672;28;20037;-72
2022/03/27 04:49:10;;;;;;;21.02;12.27;;;8.40;68.50;;;;;;5029443;28;20041;-72
2022/03/27 04:51:35;;;;;;;24.05;13.93;;;8.20;69.10;;;;;;5027164;28;20104;-72
2022/03/27 04:54:01;;;;;;;26.13;13.48;;;8.20;69.00;;;;;;5026321;28;20042;-72
2022/03/27 04:56:27;;;;;;;21.05;12.93;;;8.20;69.20;;;;;;5026172;28;20136;-72
2022/03/27 04:58:53;;;;;;;21.85;13.13;;;8.00;69.50;;;;;;5026203;28;20044;-72
2022/03/27 05:01:18;;;;;;;21.40;12.15;;;8.00;69.70;;;;;;5026414;28;20045;-72
2022/03/27 05:03:44;;;;;;;22.42;12.75;;;7.80;69.90;;;;;;5026641;28;20170;-71
2022/03/27 05:06:10;;;;;;;22.85;12.82;;;7.70;70.30;;;;;;5025804;28;20104;-72
2022/03/27 05:08:36;;;;;;;24.02;13.45;;;7.60;70.90;;;;;;5026793;28;20033;-71
2022/03/27 05:11:01;;;;;;;21.35;12.27;;;8.10;69.90;;;;;;5026029;28;20069;-71
2022/03/27 05:13:27;;;;;;;23.55;14.00;;;8.10;69.70;;;;;;5026469;28;20165;-72
2022/03/27 05:15:53;;;;;;;27.02;14.55;;;8.80;68.80;;;;;;5025758;28;20038;-72
2022/03/27 05:18:19;;;;;;;18.25;11.40;;;9.20;68.40;;;;;;5025803;28;20041;-72
2022/03/27 05:20:45;;;;;;;26.85;13.25;;;9.20;67.90;;;;;;5025347;28;20052;-72
2022/03/27 05:23:11;;;;;;;24.67;13.57;;;8.90;68.10;;;;;;5026034;28;20030;-73
2022/03/27 05:25:45;;;;;;;20.27;12.35;;;8.50;68.80;;;;;;5025920;28;20432;-72
2022/03/27 05:28:11;;;;;;;;;;;8.30;69.00;;;;;;5029416;28;20029;-72
2022/03/27 05:30:38;;;;;;;21.77;12.73;;;8.10;69.60;;;;;;5029811;28;20391;-72
2022/03/27 05:33:04;;;;;;;20.13;12.73;;;8.30;69.90;;;;;;5029586;28;20495;-72
2022/03/27 05:35:30;;;;;;;21.33;12.45;;;8.40;69.70;;;;;;5029743;28;20036;-72
2022/03/27 05:37:58;;;;;;;24.60;14.00;;;8.40;69.40;;;;;;5029558;28;20037;-72
2022/03/27 05:40:25;;;;;;;25.30;12.02;;;8.50;69.30;;;;;;5029994;28;20514;-72
2022/03/27 05:42:50;;;;;;;21.98;12.13;;;8.20;69.90;;;;;;5028801;28;20045;-72
2022/03/27 05:45:17;;;;;;;21.77;13.05;;;8.00;70.40;;;;;;5029517;28;20063;-72
2022/03/27 05:47:44;;;;;;;26.45;13.25;;;8.10;70.10;;;;;;5029355;28;20030;-72
2022/03/27 05:50:11;;;;;;;23.40;13.52;;;8.20;70.20;;;;;;5029768;28;20033;-72
2022/03/27 05:52:37;;;;;;;25.50;13.52;;;8.00;70.60;;;;;;5029406;28;20044;-72
2022/03/27 05:55:04;;;;;;;21.20;12.93;;;8.00;70.40;;;;;;5028451;28;20029;-72
2022/03/27 05:57:30;;;;;;;21.92;13.10;;;8.00;70.70;;;;;;5028910;28;20059;-72
2022/03/27 05:59:56;;;;;;;21.25;13.05;;;8.00;70.60;;;;;;5029764;28;20543;-72
2022/03/27 06:02:21;;;;;;;26.45;13.45;;;8.10;70.50;;;;;;5029171;28;20107;-73
2022/03/27 06:04:47;;;;;;;20.75;12.23;;;8.60;69.70;;;;;;5028834;28;20509;-72
2022/03/27 06:07:13;;;;;;;19.75;12.45;;;8.40;69.80;;;;;;5028928;28;20064;-72
2022/03/27 06:09:39;;;;;;;21.25;12.50;;;8.20;70.50;;;;;;5029402;28;20076;-72
2022/03/27 06:12:05;;;;;;;21.40;12.68;;;7.90;71.10;;;;;;5029192;28;20052;-72
2022/03/27 06:14:31;;;;;;;21.30;13.18;;;8.00;71.20;;;;;;5028816;28;20037;-72
2022/03/27 06:16:57;;;;;;;23.38;13.30;;;8.00;71.10;;;;;;5029660;28;20029;-72
2022/03/27 06:19:23;;;;;;;21.90;12.40;;;8.00;71.10;;;;;;5028811;28;20026;-72
2022/03/27 06:21:49;;;;;;;21.55;12.13;;;7.90;72.20;;;;;;5028604;28;20034;-72
2022/03/27 06:24:15;;;;;;;19.65;11.90;;;7.90;71.80;;;;;;5028833;28;20036;-73
2022/03/27 06:26:41;;;;;;;21.25;12.20;;;8.00;72.10;;;;;;5029322;28;20025;-72
2022/03/27 06:29:09;;;;;;;21.95;11.98;;;7.90;72.20;;;;;;5028413;28;20025;-72
2022/03/27 06:31:38;;;;;;;21.60;12.38;;;7.90;72.40;;;;;;5028556;28;20063;-73
2022/03/27 06:34:05;;;;;;;23.63;13.20;;;7.80;72.50;;;;;;5027156;28;20861;-72
2022/03/27 06:36:31;;;;;;;26.75;13.25;;;7.90;72.60;;;;;;5029005;28;20036;-72
2022/03/27 06:38:57;;;;;;;24.00;13.48;;;8.10;71.80;;;;;;5027857;28;20033;-72
2022/03/27 06:41:22;;;;;;;21.83;12.82;;;8.30;71.90;;;;;;5028625;28;20049;-72
2022/03/27 06:43:48;;;;;;;18.55;11.82;;;8.50;70.90;;;;;;5028708;28;20352;-72
2022/03/27 06:46:16;;;;;;;19.13;12.80;;;8.70;70.90;;;;;;5028158;28;20037;-72
2022/03/27 06:48:47;;;;;;;20.17;12.85;;;8.80;70.60;;;;;;5028561;28;20075;-74
2022/03/27 06:51:13;;;;;;;20.00;12.43;;;8.80;70.80;;;;;;5028260;28;20033;-72
2022/03/27 06:53:39;;;;;;;18.92;11.65;;;8.80;71.20;;;;;;5028586;28;20037;-72
2022/03/27 06:56:06;;;;;;;20.48;12.10;;;8.80;72.00;;;;;;5028302;28;20033;-72
2022/03/27 06:58:32;;;;;;;19.85;11.70;;;8.80;71.00;;;;;;5028612;28;20032;-72
2022/03/27 07:03:42;;;;;;;22.70;12.90;;;8.80;73.10;;;;;;5027560;28;20136;-72
2022/03/27 07:06:08;;;;;;;22.70;12.65;;;8.90;72.50;;;;;;5027698;28;20124;-72
2022/03/27 07:08:34;;;;;;;24.23;12.35;;;8.90;73.00;;;;;;5027918;28;20033;-74
2022/03/27 07:10:59;;;;;;;21.13;13.23;;;9.00;71.80;;;;;;5027929;28;20468;-72
2022/03/27 07:13:25;;;;;;;23.85;13.30;;;9.10;71.20;;;;;;5027705;28;20365;-73
2022/03/27 07:15:51;;;;;;;22.13;13.15;;;9.70;70.60;;;;;;5027433;28;20052;-73
2022/03/27 07:18:17;;;;;;;22.50;12.48;;;10.30;69.10;;;;;;5028094;28;20447;-72
2022/03/27 07:20:45;;;;;;;22.77;14.20;;;9.90;69.50;;;;;;5026902;28;20067;-72
2022/03/27 07:23:13;;;;;;;20.15;11.68;;;9.60;69.30;;;;;;5027523;28;20048;-72
2022/03/27 07:25:41;;;;;;;24.38;12.15;;;9.60;70.00;;;;;;5027007;28;20086;-72
2022/03/27 07:28:09;;;;;;;19.40;11.70;;;9.60;70.40;;;;;;5026964;28;20044;-73
2022/03/27 07:30:36;;;;;;;25.08;13.18;;;9.70;71.20;;;;;;5027409;28;20033;-72
2022/03/27 07:33:02;;;;;;;21.27;13.00;;;9.70;70.10;;;;;;5027731;28;20151;-72
2022/03/27 07:35:30;;;;;;;21.92;13.57;;;9.70;70.70;;;;;;5027348;28;20040;-72
2022/03/27 07:37:56;;;;;;;19.77;12.70;;;9.80;71.40;;;;;;5027129;28;20372;-72
2022/03/27 07:40:22;;;;;;;19.13;12.00;;;9.90;70.60;;;;;;5027304;28;20521;-73
2022/03/27 07:42:50;;;;;;;23.40;13.55;;;9.90;70.00;;;;;;5027064;28;20052;-72
2022/03/27 07:45:21;;;;;;;21.67;12.40;;;10.00;70.30;;;;;;5027152;28;20037;-72
2022/03/27 07:47:50;;;;;;;21.95;12.60;;;10.00;69.80;;;;;;5027269;28;20391;-72
2022/03/27 07:50:17;;;;;;;18.58;12.48;;;10.00;69.40;;;;;;5026596;28;20040;-73
2022/03/27 07:52:44;;;;;;;19.85;12.57;;;10.00;68.90;;;;;;5027366;28;20040;-72
2022/03/27 07:55:13;;;;;;;25.05;14.57;;;10.10;69.00;;;;;;5027151;28;20030;-72
2022/03/27 07:57:38;;;;;;;22.05;13.65;;;10.20;68.80;;;;;;5026903;28;20409;-72
2022/03/27 08:00:08;;;;;;;21.45;12.60;;;10.30;68.20;;;;;;5027498;28;20102;-72
2022/03/27 08:02:34;;;;;;;27.42;12.95;;;10.40;68.10;;;;;;5026271;28;20085;-72
2022/03/27 08:04:59;;;;;;;24.40;13.77;;;10.50;68.40;;;;;;5027267;28;20041;-73
2022/03/27 08:07:25;;;;;;;20.42;12.65;;;10.70;68.40;;;;;;5027037;28;20112;-72
2022/03/27 08:09:52;;;;;;;23.38;14.43;;;10.80;68.30;;;;;;5026918;28;20590;-73
2022/03/27 08:12:20;;;;;;;21.05;13.00;;;10.80;67.80;;;;;;5026750;28;20065;-73
2022/03/27 08:14:48;;;;;;;22.52;13.40;;;10.80;67.80;;;;;;5026789;28;20067;-72
2022/03/27 08:17:16;;;;;;;21.45;12.88;;;10.90;67.80;;;;;;5028749;28;20119;-72
2022/03/27 08:19:43;;;;;;;23.00;13.15;;;11.00;68.40;;;;;;5029784;28;20550;-72
2022/03/27 08:22:09;;;;;;;23.15;12.95;;;11.00;68.00;;;;;;5029642;28;20068;-72
2022/03/27 08:24:35;;;;;;;21.75;12.80;;;11.10;67.90;;;;;;5028884;28;20037;-72
2022/03/27 08:27:03;;;;;;;22.10;13.25;;;11.20;67.80;;;;;;5022809;28;20064;-72
2022/03/27 08:29:34;;;;;;;23.73;13.82;;;11.10;67.30;;;;;;5029268;28;20124;-72
2022/03/27 08:32:03;;;;;;;24.15;14.43;;;11.10;67.70;;;;;;5029724;28;20459;-72
2022/03/27 08:34:31;;;;;;;21.40;12.73;;;11.10;67.30;;;;;;5029099;28;20040;-73
2022/03/27 08:36:58;;;;;;;22.90;12.73;;;11.30;68.70;;;;;;5029831;28;20412;-73
2022/03/27 08:39:25;;;;;;;34.28;15.82;;;11.50;68.10;;;;;;5029390;28;20033;-72
2022/03/27 08:41:54;;;;;;;28.40;13.60;;;11.70;67.50;;;;;;5028463;28;20037;-72
2022/03/27 08:44:21;;;;;;;30.02;15.73;;;11.80;67.40;;;;;;5028815;28;20283;-72
2022/03/27 08:46:48;;;;;;;26.77;13.75;;;11.70;67.80;;;;;;5029448;28;20029;-73
2022/03/27 08:49:17;;;;;;;25.88;13.25;;;11.70;67.40;;;;;;5029184;28;20034;-72
2022/03/27 08:52:10;;;;;;;46.90;15.15;;;11.60;67.60;;;;;;5029316;28;20037;-73
2022/03/27 08:54:51;;;;;;;29.15;13.60;;;11.70;67.50;;;;;;5013134;28;20691;-72
2022/03/27 08:57:33;;;;;;;34.55;14.27;;;11.80;68.00;;;;;;5029098;28;20515;-72
2022/03/27 09:00:00;;;;;;;113.38;65.10;;;11.90;67.60;;;;;;5029492;28;20033;-72
2022/03/27 09:02:25;;;;;;;27.25;16.75;;;11.90;67.30;;;;;;5026247;28;20633;-73
2022/03/27 09:04:56;;;;;;;20.63;13.52;;;11.90;67.10;;;;;;5029003;28;20110;-73
2022/03/27 09:07:28;;;;;;;23.10;12.98;;;11.90;67.40;;;;;;5029279;28;20468;-74
2022/03/27 09:09:54;;;;;;;24.23;14.50;;;12.00;66.90;;;;;;5029345;28;20036;-74
2022/03/27 09:12:21;;;;;;;22.35;12.88;;;12.00;66.20;;;;;;5028647;28;20029;-73
2022/03/27 09:14:48;;;;;;;48.97;28.13;;;12.10;66.90;;;;;;5028401;28;20037;-73
2022/03/27 09:17:14;;;;;;;108.28;57.97;;;13.50;66.60;;;;;;5028609;28;20057;-73
2022/03/27 09:19:51;;;;;;;183.55;104.35;;;16.50;62.50;;;;;;5028674;28;20033;-73
2022/03/27 09:22:22;;;;;;;40.72;17.35;;;18.50;60.60;;;;;;5028815;28;20499;-73
2022/03/27 09:24:59;;;;;;;21.52;13.93;;;18.70;59.30;;;;;;5028978;28;20603;-73
2022/03/27 09:27:33;;;;;;;39.13;15.02;;;18.90;57.20;;;;;;5028564;28;20117;-73
2022/03/27 09:30:09;;;;;;;23.27;13.88;;;19.70;58.10;;;;;;5029489;28;20034;-73
2022/03/27 09:32:40;;;;;;;23.58;13.95;;;19.80;57.70;;;;;;5029027;28;20125;-73
2022/03/27 09:35:14;;;;;;;22.90;13.38;;;20.20;57.70;;;;;;5028976;28;20029;-73
2022/03/27 09:37:42;;;;;;;22.83;12.90;;;20.20;57.40;;;;;;5028890;28;20116;-72
2022/03/27 09:40:10;;;;;;;25.58;13.88;;;20.20;57.10;;;;;;5027814;28;20033;-73
2022/03/27 09:42:38;;;;;;;38.50;19.58;;;20.30;58.10;;;;;;5028157;28;20049;-73
2022/03/27 09:45:12;;;;;;;29.42;13.98;;;20.80;57.50;;;;;;5029185;28;20313;-73
2022/03/27 09:47:39;;;;;;;21.70;13.38;;;20.20;57.60;;;;;;5028643;28;20099;-73
2022/03/27 09:50:05;;;;;;;23.80;13.75;;;20.70;56.00;;;;;;5028867;28;20037;-74
2022/03/27 09:52:33;;;;;;;26.45;15.13;;;20.40;56.80;;;;;;5028081;28;20037;-73
2022/03/27 09:55:01;;;;;;;25.38;15.63;;;20.00;56.00;;;;;;5028500;28;20038;-73
2022/03/27 09:57:33;;;;;;;27.58;13.93;;;18.50;57.00;;;;;;5028375;28;20022;-73
2022/03/27 10:00:11;;;;;;;62.38;15.30;;;16.70;58.70;;;;;;5029208;28;20056;-73
2022/03/27 10:02:38;;;;;;;20.08;13.38;;;15.40;60.90;;;;;;5028126;28;20038;-73
2022/03/27 10:05:10;;;;;;;19.00;11.98;;;15.10;62.40;;;;;;5028744;28;20056;-73
2022/03/27 10:07:48;;;;;;;25.67;14.68;;;14.80;63.00;;;;;;5028409;28;20115;-73
2022/03/27 10:10:16;;;;;;;22.17;14.00;;;14.60;62.50;;;;;;5028168;28;20033;-73
2022/03/27 10:12:45;;;;;;;48.10;16.35;;;14.60;62.70;;;;;;5028518;28;20033;-73
2022/03/27 10:15:13;;;;;;;22.35;13.38;;;14.80;64.20;;;;;;5032288;28;20444;-73
2022/03/27 10:17:43;;;;;;;23.33;13.32;;;14.80;62.60;;;;;;5031972;28;20040;-74
2022/03/27 10:20:14;;;;;;;26.55;12.90;;;14.80;62.60;;;;;;5032094;28;20111;-74
2022/03/27 10:22:45;;;;;;;22.98;13.05;;;15.00;62.60;;;;;;5031068;28;20524;-73
2022/03/27 10:25:13;;;;;;;20.63;12.82;;;15.10;61.80;;;;;;5031568;28;20352;-74
2022/03/27 10:27:42;;;;;;;21.58;13.85;;;15.30;61.50;;;;;;5031357;28;20037;-73
2022/03/27 10:30:10;;;;;;;49.92;14.75;;;15.70;61.30;;;;;;5031709;28;20112;-73
2022/03/27 10:32:38;;;;;;;39.38;14.18;;;15.80;61.10;;;;;;5031505;28;20033;-74
2022/03/27 10:35:25;;;;;;;71.60;17.77;;;15.70;60.00;;;;;;5031341;28;20032;-73
2022/03/27 10:38:07;;;;;;;21.13;12.40;;;15.80;60.10;;;;;;5031386;28;20064;-74
2022/03/27 10:40:51;;;;;;;23.17;13.52;;;16.00;60.40;;;;;;5031615;28;20061;-73
2022/03/27 10:43:32;;;;;;;20.25;13.60;;;16.00;60.10;;;;;;5028514;28;20096;-73
2022/03/27 10:46:14;;;;;;;23.55;13.50;;;16.30;60.00;;;;;;5030808;28;20026;-74
2022/03/27 10:48:44;;;;;;;19.08;12.35;;;16.40;60.50;;;;;;5031576;28;20031;-73
2022/03/27 10:51:10;;;;;;;21.50;12.43;;;16.50;59.10;;;;;;5031240;28;20040;-73
2022/03/27 10:53:36;;;;;;;21.20;13.18;;;16.40;58.60;;;;;;5031542;28;20102;-74
2022/03/27 10:56:03;;;;;;;20.23;13.15;;;16.60;59.10;;;;;;5031231;28;20033;-73
2022/03/27 10:58:40;;;;;;;20.02;12.85;;;16.50;58.30;;;;;;5030956;28;20037;-73
2022/03/27 11:01:22;;;;;;;18.33;12.05;;;16.50;58.50;;;;;;5031054;28;20037;-73
2022/03/27 11:03:51;;;;;;;19.08;12.73;;;16.70;59.70;;;;;;5031030;28;20045;-74
2022/03/27 11:06:26;;;;;;;21.40;13.23;;;16.80;58.40;;;;;;5031254;28;20037;-73
2022/03/27 11:08:54;;;;;;;19.05;12.35;;;17.00;58.40;;;;;;5031352;28;20384;-74
2022/03/27 11:11:38;;;;;;;22.30;13.15;;;17.30;59.90;;;;;;5030995;28;20052;-74
2022/03/27 11:14:05;;;;;;;28.65;13.50;;;17.50;58.90;;;;;;5030843;28;20125;-74
2022/03/27 11:16:33;;;;;;;23.92;13.18;;;17.30;58.00;;;;;;5031185;28;20033;-74
2022/03/27 11:18:59;;;;;;;17.85;12.55;;;17.40;58.20;;;;;;5030983;28;20107;-74
2022/03/27 11:21:28;;;;;;;19.67;13.40;;;17.60;59.40;;;;;;5030766;28;20100;-74
2022/03/27 11:24:19;;;;;;;21.00;12.98;;;17.70;58.70;;;;;;5030718;28;20038;-74
2022/03/27 11:26:45;;;;;;;19.65;13.57;;;17.70;57.90;;;;;;5024832;28;20040;-74
2022/03/27 11:29:11;;;;;;;20.05;13.07;;;18.00;59.10;;;;;;5030436;28;20037;-74
2022/03/27 11:31:38;;;;;;;22.02;12.50;;;17.90;58.70;;;;;;5030918;28;20111;-74
2022/03/27 11:34:14;;;;;;;19.25;12.98;;;17.90;58.60;;;;;;5030344;28;20033;-74
2022/03/27 11:36:59;;;;;;;19.60;12.20;;;17.70;57.60;;;;;;5030899;28;20116;-74
2022/03/27 11:39:28;;;;;;;21.15;12.15;;;17.60;58.20;;;;;;5030043;28;20040;-74
2022/03/27 11:41:53;;;;;;;18.88;12.40;;;18.00;58.60;;;;;;5029733;28;20124;-74
2022/03/27 11:44:23;;;;;;;19.80;13.40;;;18.10;57.80;;;;;;5029805;28;20460;-74
2022/03/27 11:46:56;;;;;;;24.20;13.50;;;18.40;57.40;;;;;;5030151;28;20636;-74
2022/03/27 11:49:35;;;;;;;21.33;13.30;;;18.40;56.90;;;;;;5029587;28;20056;-74
2022/03/27 11:52:09;;;;;;;20.75;13.07;;;18.40;57.70;;;;;;5030164;28;20021;-74
2022/03/27 11:54:35;;;;;;;21.52;14.90;;;18.40;56.30;;;;;;5030021;28;20092;-74
2022/03/27 11:57:02;;;;;;;18.48;12.35;;;18.50;56.40;;;;;;5030374;28;20034;-74
2022/03/27 11:59:28;;;;;;;17.35;11.75;;;18.80;55.90;;;;;;5029373;28;20025;-74
2022/03/27 12:01:57;;;;;;;20.70;12.80;;;18.90;57.00;;;;;;5030225;28;20037;-74
2022/03/27 12:04:24;;;;;;;17.80;12.35;;;19.10;57.40;;;;;;5029648;28;20053;-74
2022/03/27 12:07:00;;;;;;;21.90;13.07;;;19.10;55.80;;;;;;5030252;28;20490;-74
2022/03/27 12:09:27;;;;;;;21.05;12.85;;;19.20;58.40;;;;;;5029816;28;20036;-74
2022/03/27 12:12:10;;;;;;;18.45;12.65;;;19.40;57.20;;;;;;5029660;28;20087;-74
2022/03/27 12:14:56;;;;;;;22.00;13.50;;;19.40;55.50;;;;;;5029395;28;20061;-74
2022/03/27 12:17:23;;;;;;;21.00;12.60;;;19.40;55.90;;;;;;5030015;28;20021;-74
2022/03/27 12:20:08;;;;;;;17.63;11.63;;;19.30;55.50;;;;;;5029981;28;20079;-74
2022/03/27 12:22:45;;;;;;;21.52;12.70;;;19.50;55.60;;;;;;5029121;28;20029;-74
2022/03/27 12:25:20;;;;;;;23.98;13.23;;;19.70;56.60;;;;;;5030056;28;20041;-74
2022/03/27 12:30:48;;;;;;;20.65;13.02;;;20.00;54.10;;;;;;5029584;28;20078;-74
2022/03/27 12:33:17;;;;;;;17.38;11.32;;;19.80;53.40;;;;;;5028841;28;20025;-74
2022/03/27 12:35:42;;;;;;;16.13;10.85;;;19.70;53.00;;;;;;5029097;28;20041;-74
2022/03/27 12:38:08;;;;;;;19.45;12.40;;;19.80;53.10;;;;;;5029639;28;20501;-74
2022/03/27 12:40:43;;;;;;;17.05;11.10;;;20.20;53.50;;;;;;5029356;28;20041;-74
2022/03/27 12:43:14;;;;;;;21.02;11.88;;;20.10;54.10;;;;;;5029088;28;20039;-74